createdAt,value
2018-09-20T00:02:08.221Z,18.59
2018-09-20T00:04:20.439Z,18.55
2018-09-20T00:06:32.662Z,18.46
2018-09-20T00:08:44.877Z,18.39
2018-09-20T00:10:57.074Z,18.35
2018-09-20T00:13:09.311Z,18.28
2018-09-20T00:15:21.515Z,18.27
2018-09-20T00:17:33.711Z,18.21
2018-09-20T00:19:45.957Z,18.16
2018-09-20T00:21:58.162Z,18.12
2018-09-20T00:24:10.408Z,18.12
2018-09-20T00:26:22.635Z,18.11
2018-09-20T00:28:34.820Z,18.11
2018-09-20T00:30:47.031Z,18.05
2018-09-20T00:32:59.211Z,17.95
2018-09-20T00:35:11.399Z,17.92
2018-09-20T00:37:23.611Z,17.91
2018-09-20T00:39:35.823Z,17.93
2018-09-20T00:41:48.067Z,17.91
2018-09-20T00:44:00.255Z,17.91
2018-09-20T00:46:12.446Z,17.88
2018-09-20T00:48:24.639Z,17.86
2018-09-20T00:50:37.015Z,17.83
2018-09-20T00:52:49.216Z,17.82
2018-09-20T00:55:01.411Z,17.80
2018-09-20T00:57:13.619Z,17.77
2018-09-20T00:59:25.818Z,17.76
2018-09-20T01:01:37.991Z,17.74
2018-09-20T01:03:50.214Z,17.75
2018-09-20T01:06:02.488Z,17.77
2018-09-20T01:08:14.775Z,17.78
2018-09-20T01:10:26.974Z,17.78
2018-09-20T01:12:39.185Z,17.75
2018-09-20T01:14:51.354Z,17.71
2018-09-20T01:17:03.540Z,17.67
2018-09-20T01:19:15.746Z,17.65
2018-09-20T01:21:27.968Z,17.65
2018-09-20T01:23:40.146Z,17.66
2018-09-20T01:25:52.386Z,17.75
2018-09-20T01:28:04.726Z,17.76
2018-09-20T01:30:16.890Z,17.79
2018-09-20T01:32:29.050Z,17.84
2018-09-20T01:34:41.238Z,17.87
2018-09-20T01:36:53.402Z,17.89
2018-09-20T01:39:10.215Z,17.89
2018-09-20T01:41:22.414Z,17.90
2018-09-20T01:43:34.611Z,17.87
2018-09-20T01:45:46.772Z,17.82
2018-09-20T01:47:58.978Z,17.74
2018-09-20T01:50:11.137Z,17.71
2018-09-20T01:52:23.376Z,17.71
2018-09-20T01:54:35.542Z,17.69
2018-09-20T01:56:47.755Z,17.71
2018-09-20T01:58:59.990Z,17.75
2018-09-20T02:01:12.171Z,17.78
2018-09-20T02:03:24.368Z,17.75
2018-09-20T02:05:36.626Z,17.70
2018-09-20T02:07:48.804Z,17.71
2018-09-20T02:10:01.002Z,17.68
2018-09-20T02:12:13.275Z,17.64
2018-09-20T02:14:25.455Z,17.62
2018-09-20T02:16:37.687Z,17.63
2018-09-20T02:18:49.873Z,17.66
2018-09-20T02:21:02.086Z,17.71
2018-09-20T02:23:14.262Z,17.66
2018-09-20T02:25:26.488Z,17.62
2018-09-20T02:27:38.677Z,17.55
2018-09-20T02:29:52.172Z,17.44
2018-09-20T02:32:04.409Z,17.35
2018-09-20T02:34:20.162Z,17.29
2018-09-20T02:36:32.653Z,17.23
2018-09-20T02:38:55.077Z,17.21
2018-09-20T02:41:07.515Z,17.20
2018-09-20T02:43:19.755Z,17.18
2018-09-20T02:45:32.030Z,17.19
2018-09-20T02:47:44.232Z,17.20
2018-09-20T02:49:56.415Z,17.21
2018-09-20T02:52:08.664Z,17.22
2018-09-20T02:54:20.863Z,17.20
2018-09-20T02:56:33.091Z,17.21
2018-09-20T02:58:45.315Z,17.17
2018-09-20T03:00:57.513Z,17.09
2018-09-20T03:03:09.695Z,16.99
2018-09-20T03:05:21.951Z,16.96
2018-09-20T03:07:34.166Z,16.94
2018-09-20T03:09:46.395Z,16.95
2018-09-20T03:11:58.628Z,16.94
2018-09-20T03:14:10.839Z,16.93
2018-09-20T03:16:23.022Z,16.89
2018-09-20T03:18:35.186Z,16.85
2018-09-20T03:20:47.407Z,16.86
2018-09-20T03:22:59.754Z,16.85
2018-09-20T03:25:11.990Z,16.79
2018-09-20T03:27:24.165Z,16.74
2018-09-20T03:29:36.381Z,16.74
2018-09-20T03:31:48.597Z,16.74
2018-09-20T03:34:00.845Z,16.75
2018-09-20T03:36:13.036Z,16.77
2018-09-20T03:38:25.249Z,16.77
2018-09-20T03:40:37.423Z,16.76
2018-09-20T03:42:49.606Z,16.72
2018-09-20T03:45:01.801Z,16.68
2018-09-20T03:47:13.986Z,16.67
2018-09-20T03:49:26.187Z,16.64
2018-09-20T03:51:38.381Z,16.57
2018-09-20T03:53:50.538Z,16.55
2018-09-20T03:56:02.723Z,16.54
2018-09-20T03:58:14.940Z,16.55
2018-09-20T04:00:27.123Z,16.60
2018-09-20T04:02:39.370Z,16.64
2018-09-20T04:04:51.567Z,16.63
2018-09-20T04:07:03.777Z,16.67
2018-09-20T04:09:15.984Z,16.69
2018-09-20T04:11:28.184Z,16.71
2018-09-20T04:13:40.429Z,16.68
2018-09-20T04:15:52.635Z,16.64
2018-09-20T04:18:04.930Z,16.56
2018-09-20T04:20:17.133Z,16.48
2018-09-20T04:22:29.335Z,16.38
2018-09-20T04:24:41.566Z,16.28
2018-09-20T04:26:53.763Z,16.24
2018-09-20T04:29:06.032Z,16.27
2018-09-20T04:31:18.235Z,16.30
2018-09-20T04:33:30.456Z,16.25
2018-09-20T04:35:42.642Z,16.20
2018-09-20T04:37:54.821Z,16.20
2018-09-20T04:40:07.064Z,16.18
2018-09-20T04:42:19.280Z,16.19
2018-09-20T04:44:31.475Z,16.21
2018-09-20T04:46:43.675Z,16.23
2018-09-20T04:48:55.888Z,16.25
2018-09-20T04:51:08.107Z,16.25
2018-09-20T04:53:20.379Z,16.27
2018-09-20T04:55:32.500Z,16.28
2018-09-20T04:57:44.684Z,16.31
2018-09-20T04:59:56.962Z,16.30
2018-09-20T05:02:09.180Z,16.30
2018-09-20T05:04:21.385Z,16.29
2018-09-20T05:06:33.627Z,16.24
2018-09-20T05:08:45.847Z,16.23
2018-09-20T05:10:58.052Z,16.23
2018-09-20T05:13:10.328Z,16.28
2018-09-20T05:15:22.558Z,16.30
2018-09-20T05:17:34.805Z,16.31
2018-09-20T05:19:47.069Z,16.30
2018-09-20T05:21:59.274Z,16.30
2018-09-20T05:24:11.468Z,16.31
2018-09-20T05:26:23.681Z,16.34
2018-09-20T05:28:35.972Z,16.40
2018-09-20T05:30:48.172Z,16.44
2018-09-20T05:33:00.394Z,16.51
2018-09-20T05:35:12.633Z,16.56
2018-09-20T05:37:24.859Z,16.60
2018-09-20T05:39:37.089Z,16.69
2018-09-20T05:41:49.286Z,16.77
2018-09-20T05:44:01.600Z,16.79
2018-09-20T05:46:13.784Z,16.91
2018-09-20T05:48:26.012Z,17.05
2018-09-20T05:50:38.270Z,17.16
2018-09-20T05:52:50.595Z,17.28
2018-09-20T05:55:02.799Z,17.42
2018-09-20T05:57:15.651Z,17.57
2018-09-20T05:59:27.830Z,17.71
2018-09-20T06:01:40.024Z,17.83
2018-09-20T06:03:52.254Z,17.97
2018-09-20T06:06:04.484Z,18.12
2018-09-20T06:08:16.686Z,18.32
2018-09-20T06:10:28.888Z,18.39
2018-09-20T06:12:41.243Z,18.36
2018-09-20T06:14:53.488Z,18.28
2018-09-20T06:17:05.766Z,18.34
2018-09-20T06:19:17.980Z,18.35
2018-09-20T06:21:30.183Z,18.38
2018-09-20T06:23:42.370Z,18.43
2018-09-20T06:25:54.578Z,18.50
2018-09-20T06:28:06.756Z,18.57
2018-09-20T06:30:18.948Z,18.82
2018-09-20T06:32:31.202Z,19.15
2018-09-20T06:34:43.482Z,19.48
2018-09-20T06:36:55.697Z,19.80
2018-09-20T06:39:09.500Z,20.16
2018-09-20T06:41:21.734Z,20.58
2018-09-20T06:43:33.930Z,20.94
2018-09-20T06:45:46.126Z,21.21
2018-09-20T06:47:58.356Z,21.44
2018-09-20T06:50:10.799Z,21.60
2018-09-20T06:52:23.024Z,21.81
2018-09-20T06:54:35.212Z,22.03
2018-09-20T06:56:47.394Z,22.36
2018-09-20T06:58:59.627Z,22.62
2018-09-20T07:01:11.875Z,22.81
2018-09-20T07:03:24.138Z,23.10
2018-09-20T07:05:36.303Z,23.33
2018-09-20T07:07:48.519Z,23.40
2018-09-20T07:10:00.903Z,23.38
2018-09-20T07:12:13.126Z,23.42
2018-09-20T07:14:25.301Z,23.47
2018-09-20T07:16:37.522Z,23.57
2018-09-20T07:18:49.718Z,23.70
2018-09-20T07:21:02.344Z,23.73
2018-09-20T07:23:14.576Z,23.83
2018-09-20T07:25:26.799Z,23.96
2018-09-20T07:27:38.999Z,24.28
2018-09-20T07:29:51.179Z,24.57
2018-09-20T07:32:03.407Z,24.65
2018-09-20T07:34:15.599Z,24.84
2018-09-20T07:36:28.014Z,25.00
2018-09-20T07:38:40.289Z,24.97
2018-09-20T07:43:48.156Z,25.26
2018-09-20T07:46:00.360Z,25.37
2018-09-20T07:48:12.586Z,25.51
2018-09-20T07:50:24.875Z,25.64
2018-09-20T07:52:37.086Z,25.83
2018-09-20T07:54:49.320Z,25.97
2018-09-20T07:57:01.568Z,26.06
2018-09-20T07:59:13.839Z,26.03
2018-09-20T08:01:26.097Z,25.97
2018-09-20T08:03:38.239Z,25.89
2018-09-20T08:05:50.472Z,25.88
2018-09-20T08:08:02.740Z,25.97
2018-09-20T08:10:14.953Z,26.12
2018-09-20T08:12:27.152Z,26.19
2018-09-20T08:14:39.366Z,26.16
2018-09-20T08:16:51.600Z,26.10
2018-09-20T08:19:03.843Z,26.05
2018-09-20T08:21:16.094Z,26.05
2018-09-20T08:23:28.314Z,26.14
2018-09-20T08:25:40.537Z,26.33
2018-09-20T08:27:52.813Z,26.43
2018-09-20T08:30:05.860Z,26.46
2018-09-20T08:32:18.107Z,26.46
2018-09-20T08:34:30.311Z,26.47
2018-09-20T08:36:42.503Z,26.46
2018-09-20T08:38:54.772Z,26.53
2018-09-20T08:41:07.047Z,26.59
2018-09-20T08:43:19.219Z,26.82
2018-09-20T08:45:31.429Z,26.99
2018-09-20T08:47:43.634Z,27.03
2018-09-20T08:49:55.885Z,26.99
2018-09-20T08:52:08.127Z,26.93
2018-09-20T08:54:20.376Z,26.95
2018-09-20T08:56:32.576Z,27.05
2018-09-20T08:58:44.742Z,27.18
2018-09-20T09:00:56.984Z,27.28
2018-09-20T09:03:09.203Z,27.27
2018-09-20T09:05:21.427Z,27.29
2018-09-20T09:07:33.715Z,27.38
2018-09-20T09:09:45.889Z,27.49
2018-09-20T09:11:58.228Z,27.62
2018-09-20T09:14:10.441Z,27.60
2018-09-20T09:16:22.630Z,27.79
2018-09-20T09:18:34.841Z,27.96
2018-09-20T09:20:47.051Z,27.90
2018-09-20T09:22:59.322Z,27.87
2018-09-20T09:25:11.486Z,27.87
2018-09-20T09:27:23.671Z,27.90
2018-09-20T09:29:35.918Z,27.93
2018-09-20T09:31:48.214Z,27.92
2018-09-20T09:34:00.455Z,28.01
2018-09-20T09:36:12.741Z,28.06
2018-09-20T09:38:25.020Z,28.13
2018-09-20T09:40:37.210Z,28.25
2018-09-20T09:42:49.405Z,28.29
2018-09-20T09:45:01.606Z,28.26
2018-09-20T09:47:13.812Z,28.24
2018-09-20T09:49:26.083Z,28.26
2018-09-20T09:51:38.299Z,28.34
2018-09-20T09:53:50.639Z,28.37
2018-09-20T09:56:02.826Z,28.33
2018-09-20T09:58:15.018Z,28.30
2018-09-20T10:00:32.426Z,28.32
2018-09-20T10:02:44.628Z,28.37
2018-09-20T10:04:57.231Z,28.43
2018-09-20T10:07:09.539Z,28.52
2018-09-20T10:09:21.743Z,28.53
2018-09-20T10:11:33.978Z,28.56
2018-09-20T10:13:46.146Z,28.50
2018-09-20T10:15:58.435Z,28.57
2018-09-20T10:18:10.635Z,28.69
2018-09-20T10:20:22.871Z,28.74
2018-09-20T10:22:35.072Z,28.76
2018-09-20T10:24:47.279Z,28.81
2018-09-20T10:26:59.504Z,28.88
2018-09-20T10:29:11.739Z,28.98
2018-09-20T10:31:23.981Z,29.01
2018-09-20T10:33:36.203Z,29.05
2018-09-20T10:35:48.412Z,29.06
2018-09-20T10:38:00.620Z,29.09
2018-09-20T10:40:12.898Z,29.06
2018-09-20T10:42:25.140Z,29.08
2018-09-20T10:44:37.399Z,29.16
2018-09-20T10:46:49.632Z,29.20
2018-09-20T10:49:01.903Z,29.13
2018-09-20T10:51:14.136Z,29.02
2018-09-20T10:53:26.388Z,29.02
2018-09-20T10:55:38.621Z,29.07
2018-09-20T10:57:50.846Z,29.09
2018-09-20T11:00:03.160Z,29.11
2018-09-20T11:02:15.426Z,29.07
2018-09-20T11:04:27.607Z,29.16
2018-09-20T11:06:39.846Z,29.31
2018-09-20T11:08:52.099Z,29.38
2018-09-20T11:11:04.435Z,29.35
2018-09-20T11:13:16.595Z,29.22
2018-09-20T11:15:28.791Z,29.08
2018-09-20T11:17:41.043Z,29.11
2018-09-20T11:19:53.367Z,29.18
2018-09-20T11:22:05.606Z,29.22
2018-09-20T11:24:17.847Z,29.30
2018-09-20T11:26:30.079Z,29.39
2018-09-20T11:28:42.299Z,29.49
2018-09-20T11:30:54.580Z,29.54
2018-09-20T11:33:06.839Z,29.53
2018-09-20T11:35:19.068Z,29.43
2018-09-20T11:37:31.278Z,29.37
2018-09-20T11:39:43.502Z,29.33
2018-09-20T11:41:55.696Z,29.35
2018-09-20T11:44:08.060Z,29.18
2018-09-20T11:46:20.336Z,29.17
2018-09-20T11:48:32.697Z,29.18
2018-09-20T11:50:44.919Z,29.17
2018-09-20T11:52:57.143Z,29.23
2018-09-20T11:55:09.381Z,29.20
2018-09-20T11:57:21.641Z,29.20
2018-09-20T11:59:33.851Z,29.28
2018-09-20T12:01:46.088Z,29.37
2018-09-20T12:03:58.260Z,29.42
2018-09-20T12:06:10.483Z,29.39
2018-09-20T12:08:22.699Z,29.31
2018-09-20T12:10:34.954Z,29.32
2018-09-20T12:12:47.575Z,29.32
2018-09-20T12:14:59.824Z,29.33
2018-09-20T12:17:12.043Z,29.35
2018-09-20T12:19:24.286Z,29.48
2018-09-20T12:21:36.479Z,29.50
2018-09-20T12:23:48.732Z,29.46
2018-09-20T12:26:01.047Z,29.54
2018-09-20T12:28:13.212Z,29.52
2018-09-20T12:30:25.454Z,29.55
2018-09-20T12:32:37.689Z,29.54
2018-09-20T12:34:49.923Z,29.52
2018-09-20T12:37:02.142Z,29.47
2018-09-20T12:39:14.697Z,29.40
2018-09-20T12:41:26.915Z,29.30
2018-09-20T12:43:39.187Z,29.25
2018-09-20T12:45:51.426Z,29.25
2018-09-20T12:48:03.704Z,29.29
2018-09-20T12:50:15.922Z,29.29
2018-09-20T12:52:28.206Z,29.31
2018-09-20T12:54:40.440Z,29.29
2018-09-20T12:56:52.663Z,29.30
2018-09-20T12:59:04.999Z,29.35
2018-09-20T13:01:18.018Z,29.31
2018-09-20T13:03:30.311Z,29.34
2018-09-20T13:05:42.567Z,29.43
2018-09-20T13:07:54.815Z,29.49
2018-09-20T13:10:07.052Z,29.42
2018-09-20T13:12:19.274Z,29.42
2018-09-20T13:14:31.479Z,29.43
2018-09-20T13:16:43.712Z,29.38
2018-09-20T13:18:55.923Z,29.39
2018-09-20T13:21:08.171Z,29.38
2018-09-20T13:23:20.375Z,29.34
2018-09-20T13:25:32.674Z,29.27
2018-09-20T13:27:44.882Z,29.18
2018-09-20T13:29:57.284Z,29.15
2018-09-20T13:32:09.518Z,29.08
2018-09-20T13:34:21.758Z,29.15
2018-09-20T13:36:34.030Z,29.20
2018-09-20T13:38:46.264Z,29.23
2018-09-20T13:40:58.543Z,29.25
2018-09-20T13:43:10.825Z,29.26
2018-09-20T13:45:23.095Z,29.27
2018-09-20T13:47:35.407Z,29.26
2018-09-20T13:49:47.635Z,29.19
2018-09-20T13:51:59.864Z,29.21
2018-09-20T13:54:12.133Z,29.17
2018-09-20T13:56:24.564Z,29.20
2018-09-20T13:58:37.268Z,29.20
2018-09-20T14:00:49.495Z,29.19
2018-09-20T14:03:01.727Z,29.16
2018-09-20T14:05:13.992Z,29.16
2018-09-20T14:07:26.231Z,29.19
2018-09-20T14:09:38.458Z,29.19
2018-09-20T14:11:50.735Z,29.20
2018-09-20T14:14:02.999Z,29.16
2018-09-20T14:16:15.233Z,29.04
2018-09-20T14:18:27.500Z,28.93
2018-09-20T14:20:39.735Z,28.86
2018-09-20T14:22:52.008Z,28.85
2018-09-20T14:25:04.272Z,28.88
2018-09-20T14:27:16.495Z,28.86
2018-09-20T14:29:28.820Z,28.81
2018-09-20T14:31:40.983Z,28.81
2018-09-20T14:33:53.203Z,28.83
2018-09-20T14:36:05.491Z,28.85
2018-09-20T14:38:17.712Z,28.88
2018-09-20T14:40:29.987Z,28.86
2018-09-20T14:42:42.230Z,28.81
2018-09-20T14:44:54.435Z,28.78
2018-09-20T14:47:06.733Z,28.76
2018-09-20T14:49:18.959Z,28.73
2018-09-20T14:51:31.405Z,28.73
2018-09-20T14:53:43.650Z,28.74
2018-09-20T14:55:56.195Z,28.74
2018-09-20T14:58:08.438Z,28.77
2018-09-20T15:00:20.675Z,28.77
2018-09-20T15:02:32.906Z,28.74
2018-09-20T15:04:45.144Z,28.67
2018-09-20T15:06:57.386Z,28.64
2018-09-20T15:09:11.313Z,28.64
2018-09-20T15:11:23.547Z,28.60
2018-09-20T15:13:35.789Z,28.54
2018-09-20T15:15:48.037Z,28.54
2018-09-20T15:18:00.302Z,28.54
2018-09-20T15:20:12.539Z,28.48
2018-09-20T15:22:24.767Z,28.43
2018-09-20T15:24:37.103Z,28.39
2018-09-20T15:26:49.278Z,28.36
2018-09-20T15:29:01.532Z,28.28
2018-09-20T15:31:13.756Z,28.23
2018-09-20T15:33:25.980Z,28.19
2018-09-20T15:35:38.230Z,28.16
2018-09-20T15:37:50.446Z,28.13
2018-09-20T15:40:02.806Z,28.15
2018-09-20T15:42:14.909Z,28.13
2018-09-20T15:44:27.175Z,28.17
2018-09-20T15:46:39.387Z,28.14
2018-09-20T15:48:51.749Z,28.13
2018-09-20T15:51:03.985Z,28.10
2018-09-20T15:53:16.198Z,28.06
2018-09-20T15:55:28.420Z,28.03
2018-09-20T15:57:40.603Z,28.05
2018-09-20T15:59:52.854Z,27.99
2018-09-20T16:02:05.896Z,27.94
2018-09-20T16:04:18.170Z,27.88
2018-09-20T16:06:30.455Z,27.83
2018-09-20T16:08:42.670Z,27.84
2018-09-20T16:10:54.947Z,27.91
2018-09-20T16:13:07.158Z,27.96
2018-09-20T16:15:19.376Z,27.99
2018-09-20T16:17:31.572Z,28.02
2018-09-20T16:19:43.877Z,28.04
2018-09-20T16:21:56.189Z,28.01
2018-09-20T16:24:08.377Z,27.98
2018-09-20T16:26:20.615Z,27.92
2018-09-20T16:28:44.628Z,27.85
2018-09-20T16:31:08.073Z,27.81
2018-09-20T16:33:36.176Z,27.78
2018-09-20T16:36:02.924Z,27.78
2018-09-20T16:38:32.915Z,27.73
2018-09-20T16:40:46.815Z,27.70
2018-09-20T16:42:59.053Z,27.69
2018-09-20T16:45:11.311Z,27.66
2018-09-20T16:47:23.590Z,27.59
2018-09-20T16:49:35.816Z,27.61
2018-09-20T16:51:48.099Z,27.52
2018-09-20T16:54:00.333Z,27.42
2018-09-20T16:56:12.560Z,27.34
2018-09-20T16:58:24.849Z,27.25
2018-09-20T17:00:37.068Z,27.16
2018-09-20T17:02:49.341Z,27.09
2018-09-20T17:05:01.612Z,27.01
2018-09-20T17:07:13.844Z,26.95
2018-09-20T17:09:26.101Z,26.85
2018-09-20T17:11:38.318Z,26.75
2018-09-20T17:13:50.630Z,26.71
2018-09-20T17:16:02.889Z,26.63
2018-09-20T17:18:15.123Z,26.57
2018-09-20T17:20:27.367Z,26.49
2018-09-20T17:22:39.668Z,26.45
2018-09-20T17:24:51.961Z,26.38
2018-09-20T17:27:04.254Z,26.36
2018-09-20T17:29:16.535Z,26.36
2018-09-20T17:31:28.766Z,26.34
2018-09-20T17:33:41.054Z,26.31
2018-09-20T17:35:54.667Z,26.26
2018-09-20T17:38:07.847Z,26.19
2018-09-20T17:40:21.672Z,26.13
2018-09-20T17:42:34.808Z,26.10
2018-09-20T17:44:47.238Z,26.05
2018-09-20T17:46:59.495Z,25.97
2018-09-20T17:49:11.777Z,25.84
2018-09-20T17:51:24.330Z,25.72
2018-09-20T17:53:37.002Z,25.55
2018-09-20T17:55:49.644Z,25.39
2018-09-20T17:58:02.072Z,25.23
2018-09-20T18:00:14.396Z,25.02
2018-09-20T18:02:26.629Z,24.85
2018-09-20T18:04:38.919Z,24.68
2018-09-20T18:06:51.207Z,24.52
2018-09-20T18:09:05.451Z,24.47
2018-09-20T18:11:17.803Z,24.39
2018-09-20T18:13:30.005Z,24.24
2018-09-20T18:15:42.322Z,24.16
2018-09-20T18:17:54.589Z,24.09
2018-09-20T18:20:06.818Z,23.98
2018-09-20T18:22:19.099Z,23.93
2018-09-20T18:24:31.404Z,23.82
2018-09-20T18:26:47.331Z,23.71
2018-09-20T18:28:59.626Z,23.56
2018-09-20T18:31:11.939Z,23.53
2018-09-20T18:33:24.178Z,23.47
2018-09-20T18:35:36.464Z,23.38
2018-09-20T18:37:49.004Z,23.32
2018-09-20T18:40:01.250Z,23.26
2018-09-20T18:42:13.595Z,23.21
2018-09-20T18:44:25.833Z,23.17
2018-09-20T18:46:38.237Z,23.18
2018-09-20T18:48:50.504Z,23.16
2018-09-20T18:51:02.721Z,23.14
2018-09-20T18:53:15.023Z,23.11
2018-09-20T18:55:27.318Z,23.03
2018-09-20T18:57:39.583Z,22.89
2018-09-20T18:59:57.417Z,22.89
2018-09-20T19:02:09.734Z,22.87
2018-09-20T19:04:22.045Z,22.77
2018-09-20T19:06:34.314Z,22.61
2018-09-20T19:08:46.543Z,22.52
2018-09-20T19:10:58.778Z,22.47
2018-09-20T19:13:11.073Z,22.45
2018-09-20T19:15:23.416Z,22.47
2018-09-20T19:17:35.744Z,22.47
2018-09-20T19:19:47.975Z,22.47
2018-09-20T19:22:00.281Z,22.43
2018-09-20T19:24:12.543Z,22.44
2018-09-20T19:26:24.832Z,22.36
2018-09-20T19:28:37.062Z,22.35
2018-09-20T19:30:49.318Z,22.29
2018-09-20T19:33:01.590Z,22.17
2018-09-20T19:35:13.908Z,22.12
2018-09-20T19:37:26.146Z,22.13
2018-09-20T19:39:38.409Z,22.11
2018-09-20T19:41:50.669Z,22.08
2018-09-20T19:44:02.951Z,22.06
2018-09-20T19:46:15.170Z,22.03
2018-09-20T19:48:27.524Z,22.03
2018-09-20T19:50:39.772Z,21.96
2018-09-20T19:52:52.049Z,21.93
2018-09-20T19:55:04.390Z,21.85
2018-09-20T19:57:16.888Z,21.83
2018-09-20T19:59:29.188Z,21.72
2018-09-20T20:01:41.438Z,21.60
2018-09-20T20:03:53.789Z,21.49
2018-09-20T20:06:06.066Z,21.50
2018-09-20T20:08:18.318Z,21.50
2018-09-20T20:10:30.577Z,21.46
2018-09-20T20:12:42.817Z,21.41
2018-09-20T20:14:55.053Z,21.47
2018-09-20T20:17:07.316Z,21.50
2018-09-20T20:19:19.624Z,21.41
2018-09-20T20:21:31.795Z,21.34
2018-09-20T20:23:44.035Z,21.32
2018-09-20T20:25:56.272Z,21.32
2018-09-20T20:28:08.480Z,21.31
2018-09-20T20:30:20.693Z,21.27
2018-09-20T20:32:33.005Z,21.30
2018-09-20T20:34:45.202Z,21.29
2018-09-20T20:36:57.483Z,21.26
2018-09-20T20:39:10.257Z,21.22
2018-09-20T20:41:22.474Z,21.19
2018-09-20T20:43:34.734Z,21.19
2018-09-20T20:45:46.935Z,21.19
2018-09-20T20:47:59.179Z,21.13
2018-09-20T20:50:11.391Z,21.10
2018-09-20T20:52:23.643Z,20.97
2018-09-20T20:54:35.882Z,20.88
2018-09-20T20:56:48.180Z,20.87
2018-09-20T20:59:00.475Z,20.88
2018-09-20T21:01:19.704Z,20.87
2018-09-20T21:03:31.991Z,20.77
2018-09-20T21:05:44.350Z,20.66
2018-09-20T21:07:56.540Z,20.64
2018-09-20T21:10:08.762Z,20.62
2018-09-20T21:12:21.000Z,20.56
2018-09-20T21:14:33.241Z,20.55
2018-09-20T21:16:45.508Z,20.56
2018-09-20T21:18:57.741Z,20.55
2018-09-20T21:21:09.965Z,20.51
2018-09-20T21:23:22.190Z,20.44
2018-09-20T21:25:34.444Z,20.40
2018-09-20T21:27:46.755Z,20.38
2018-09-20T21:29:58.985Z,20.39
2018-09-20T21:32:11.216Z,20.37
2018-09-20T21:34:23.483Z,20.32
2018-09-20T21:36:35.825Z,20.31
2018-09-20T21:38:48.042Z,20.29
2018-09-20T21:41:00.355Z,20.26
2018-09-20T21:43:12.566Z,20.19
2018-09-20T21:45:24.781Z,20.15
2018-09-20T21:47:40.495Z,20.06
2018-09-20T21:49:52.658Z,19.98
2018-09-20T21:52:04.887Z,19.93
2018-09-20T21:54:17.216Z,19.88
2018-09-20T21:56:29.418Z,19.82
2018-09-20T21:58:46.733Z,19.78
2018-09-20T22:01:02.042Z,19.76
2018-09-20T22:03:14.222Z,19.76
2018-09-20T22:05:26.453Z,19.74
2018-09-20T22:07:38.673Z,19.70
2018-09-20T22:09:50.894Z,19.71
2018-09-20T22:12:03.151Z,19.66
2018-09-20T22:14:15.388Z,19.59
2018-09-20T22:16:27.624Z,19.53
2018-09-20T22:18:39.895Z,19.52
2018-09-20T22:20:52.102Z,19.50
2018-09-20T22:23:04.416Z,19.45
2018-09-20T22:25:16.651Z,19.35
2018-09-20T22:27:28.915Z,19.28
2018-09-20T22:29:41.116Z,19.22
2018-09-20T22:31:53.338Z,19.19
2018-09-20T22:34:05.613Z,19.17
2018-09-20T22:36:18.075Z,19.15
2018-09-20T22:38:30.324Z,19.10
2018-09-20T22:40:42.548Z,19.06
2018-09-20T22:42:54.754Z,19.02
2018-09-20T22:45:07.641Z,19.02
2018-09-20T22:47:19.889Z,19.02
2018-09-20T22:49:32.094Z,18.96
2018-09-20T22:51:44.320Z,19.00
2018-09-20T22:53:56.533Z,19.04
2018-09-20T22:56:08.738Z,19.10
2018-09-20T22:58:20.984Z,19.17
2018-09-20T23:00:33.182Z,19.24
2018-09-20T23:02:45.417Z,19.28
2018-09-20T23:04:57.691Z,19.34
2018-09-20T23:07:09.940Z,19.36
2018-09-20T23:09:22.132Z,19.38
2018-09-20T23:11:34.416Z,19.34
2018-09-20T23:13:46.639Z,19.29
2018-09-20T23:15:58.821Z,19.23
2018-09-20T23:18:11.014Z,19.15
2018-09-20T23:20:23.282Z,19.08
2018-09-20T23:22:35.495Z,19.02
2018-09-20T23:24:47.712Z,18.97
2018-09-20T23:26:59.888Z,18.95
2018-09-20T23:29:15.919Z,18.92
2018-09-20T23:31:28.175Z,18.92
2018-09-20T23:33:40.391Z,18.89
2018-09-20T23:35:52.715Z,18.89
2018-09-20T23:38:05.034Z,18.89
2018-09-20T23:40:17.246Z,18.88
2018-09-20T23:42:29.438Z,18.90
2018-09-20T23:44:41.632Z,18.92
2018-09-20T23:46:53.856Z,18.89
2018-09-20T23:49:06.076Z,18.85
2018-09-20T23:51:18.271Z,18.80
2018-09-20T23:53:30.455Z,18.78
2018-09-20T23:55:42.717Z,18.77
2018-09-20T23:57:54.936Z,18.77
